Decoded Metar for KSDM (SAN DIEGO/BROWN in CA, USA) (IATA:SDM) | Meteo·Mobile Aviation Weather
aviador You're here:

KSDM Decoded Metar

SAN DIEGO/BROWN in CA, USA
Report Time2019-07-16 09:53:00
UTC Time2019-07-16 10:54:45
Flight Rules lifr LIFR
Wind310° at 03 kt
W.Decomp.*RWY 26: 2.4 kt HW 1.8 kt RCW
Visibility402 m
Phenomena:Fog
Clouds:N/A
Ceiling100 ft
Temp17°C (ISA +3)
Dew Point17°C (100% RH)
QNH1010 hPa
Density Alt1,240 ft
Elevation522 ft
Report Wrong Elevation
Raw Report
KSDM 160953Z AUTO 31003KT M1/4SM FG VV001 17/17 A2982 RMK AO2
SLP092 T01670167=

Extra information for KSDM:More info

Metar Taf Metar & Taf Last 4 Metars F.Rules Stats Wind Profile Meteogram Temp Stats Airport Information Weather charts Add Link Nearby VenuesMetar ALERT Operation Metar Decoded Social comments

AIRNAV info for KSDM